Aviation Digital Data Service (ADDS)

Output produced by TAFs form (1932 UTC 17 September 2014)
found at http://aviationweather.gov/adds/tafs/
 
KROW 171739Z 1718/1818 VRB06KT P6SM SCT015 BKN022 
     FM172000 15010KT P6SM VCTS SCT030 BKN050CB 
     FM180100 11006KT P6SM VCSH SCT010 BKN030 
     FM180400 10005KT 1SM BR VCFG SCT002 BKN010 
     FM181000 05005KT 3SM -RA BR VCFG SCT005 BKN015